Terminal Aerodrome Forecast
Issued by NWS Boston, MA

Home | Current Version | Previous Version | Text Only | Print | Product List | Glossary On
Versions: 1 2 3 4 5 6 7 8 9 10 11 12 13 14 15 16 17 18 19 20 21 22 23 24 25 26 27 28 29 30 31 32 33 34 35 36 37 38 39 40 41 42 43 44
000
FTUS41 KBOX 230522
TAFBDL
TAF
KBDL 230522Z 2306/2412 01005KT P6SM -RA SCT008 OVC015
     FM230800 06004KT 3SM -RA BR OVC008
     FM232300 05005KT 2SM BR OVC015
     FM241000 VRB03KT 1SM -RA BR OVC003=

USA.gov is the U.S. government's official web portal to all federal, state and local government web resources and services.